Adams Lake, Indiana
Current Conditions -  °F | °C
As of 3:35 AM on Thursday 29 Jan 2015 (Local Time) from KANQ Reporting Station
Overcast Overcast  
Wind Chill: 17°   Ceiling: 5000
Heat Index: 28°   Visibility: 10mi
Dew Point: 21°   Wind: 15mph
Humidity: 74%   Direction: 160°SSE
Pressure: 29.89"   Gusts: NA
Location:  41.5677°N, 85.3125°W
Report Text: KANQ 290835Z AUTO 16013KT 10SM BKN050 OVC060 M02/M06 A2989 RMK
Loading
Personal Weather Stations






























Interactive Weather Map New forecast layout! Learn more

10-Day Weather Forecast

Advertisements
Track Severe Weather on mobile